Denali Natl Park, Alaska
Current Conditions -  °F | °C
As of 11:36 AM on Monday 22 Dec 2014 (Local Time) from PAIN Reporting Station
Overcast Overcast  
Wind Chill:   Ceiling: 5000
Heat Index:   Visibility: 10mi
Dew Point:   Wind: 0mph
Humidity: 92%   Direction: NA
Pressure: 29.71"   Gusts: NA
Location:  63.59°N, 151.34°W
Report Text: PAIN 222036Z AUTO 00000KT 10SM OVC050 M13/M14 A2971 RMK AO1
Loading
Personal Weather Stations






























Interactive Weather Map New forecast layout! Learn more

10-Day Weather Forecast

Advertisements
Track Severe Weather on mobile